Time;durP1;ratioP1;P1;durP2;ratioP2;P2;SDS_P1;SDS_P2;PMS_P1;PMS_P2;Temp;Humidity;BMP_temperature;BMP_pressure;BME280_temperature;BME280_humidity;BME280_pressure;Samples;Min_cycle;Max_cycle;Signal;HPM_P1;HPM_P2
2022/01/26 00:06:34;;;;;;;108.40;30.75;;;;;;;2.60;83.40;103393.66;5069247;28;20031;-72
2022/01/26 00:08:59;;;;;;;102.78;29.67;;;;;;;2.57;82.55;103390.09;5058616;28;20024;-73
2022/01/26 00:11:27;;;;;;;106.65;29.88;;;;;;;2.56;83.77;103388.31;5052442;28;20193;-72
2022/01/26 00:13:52;;;;;;;111.25;30.35;;;;;;;2.56;82.51;103388.31;5056718;28;20029;-72
2022/01/26 00:16:26;;;;;;;111.57;30.02;;;;;;;2.55;83.21;103387.44;5067193;28;20028;-72
2022/01/26 00:18:54;;;;;;;108.28;28.65;;;;;;;2.54;82.56;103388.25;5057421;28;20025;-72
2022/01/26 00:21:30;;;;;;;99.53;27.65;;;;;;;2.54;82.85;103385.69;5057925;28;20047;-72
2022/01/26 00:26:34;;;;;;;106.80;30.77;;;;;;;2.53;82.70;103383.91;5052048;28;20039;-72
2022/01/26 00:29:14;;;;;;;100.75;27.13;;;;;;;2.52;83.54;103382.19;5063852;28;20028;-72
2022/01/26 00:40:10;;;;;;;99.00;26.55;;;;;;;2.48;82.41;103364.03;5071795;28;20036;-72
2022/01/26 00:42:39;;;;;;;103.10;28.60;;;;;;;2.47;82.34;103373.38;5052462;28;20060;-72
2022/01/26 00:45:06;;;;;;;105.35;28.17;;;;;;;2.43;83.14;103363.81;5056028;28;20041;-71
2022/01/26 00:47:31;;;;;;;103.38;27.83;;;;;;;2.45;82.80;103366.44;5060699;28;20457;-72
2022/01/26 00:50:01;;;;;;;98.93;27.35;;;;;;;2.44;83.35;103367.25;5070256;28;20471;-72
2022/01/26 00:52:38;;;;;;;100.43;27.33;;;;;;;2.46;83.25;103374.19;5068456;28;20036;-72
2022/01/26 00:55:05;;;;;;;100.43;26.80;;;;;;;2.44;82.33;103372.34;5071077;28;20055;-73
2022/01/26 00:57:30;;;;;;;96.63;27.98;;;;;;;2.44;82.42;103370.69;5059913;28;20021;-72
2022/01/26 00:59:57;;;;;;;99.70;28.00;;;;;;;2.42;82.23;103363.72;5057025;28;20021;-72
2022/01/26 01:02:23;;;;;;;98.93;27.98;;;;;;;2.43;82.43;103378.28;5065869;28;20047;-72
2022/01/26 01:04:48;;;;;;;100.22;27.35;;;;;;;2.41;82.44;103370.50;5051401;28;20483;-72
2022/01/26 01:07:18;;;;;;;100.13;29.03;;;;;;;2.43;82.45;103370.59;5064641;28;20476;-71
2022/01/26 01:09:44;;;;;;;103.78;28.65;;;;;;;2.41;83.12;103365.41;5055569;28;20291;-71
2022/01/26 01:12:10;;;;;;;102.57;29.02;;;;;;;2.42;83.39;103371.41;5033254;28;20066;-72
2022/01/26 01:14:37;;;;;;;98.57;27.85;;;;;;;2.43;83.85;103357.81;5065091;28;20118;-71
2022/01/26 01:17:05;;;;;;;107.68;28.77;;;;;;;2.40;83.25;103355.97;5053682;28;20079;-72
2022/01/26 01:19:39;;;;;;;103.22;28.20;;;;;;;2.43;84.08;103350.13;5053281;28;20072;-72
2022/01/26 01:22:37;;;;;;;115.57;29.58;;;;;;;2.45;84.83;103351.97;5033370;28;20025;-72
2022/01/26 01:32:55;;;;;;;102.28;28.17;;;;;;;2.43;84.02;103339.88;5069881;28;20549;-72
2022/01/26 01:35:20;;;;;;;102.75;28.05;;;;;;;2.44;84.15;103337.41;5069958;28;20034;-72
2022/01/26 01:37:46;;;;;;;105.80;28.95;;;;;;;2.43;83.15;103325.41;5057821;28;20032;-73
2022/01/26 01:40:12;;;;;;;107.70;27.85;;;;;;;2.42;83.83;103333.88;5050529;28;20569;-72
2022/01/26 01:42:37;;;;;;;106.25;28.05;;;;;;;2.42;83.73;103333.00;5042792;28;20032;-72
2022/01/26 01:45:04;;;;;;;109.07;27.77;;;;;;;2.41;83.67;103334.69;5047782;28;20048;-72
2022/01/26 01:47:29;;;;;;;110.22;30.48;;;;;;;2.41;83.23;103338.91;5069690;28;20041;-72
2022/01/26 01:49:54;;;;;;;101.22;27.98;;;;;;;2.38;82.89;103335.44;5068770;28;20063;-72
2022/01/26 01:52:20;;;;;;;104.88;28.77;;;;;;;2.39;84.00;103336.28;5060067;28;20037;-72
2022/01/26 01:54:51;;;;;;;106.65;28.23;;;;;;;2.42;84.57;103340.69;5050037;28;20086;-72
2022/01/26 01:57:23;;;;;;;104.05;26.95;;;;;;;2.41;83.21;103331.25;5061613;28;20047;-72
2022/01/26 01:59:49;;;;;;;108.82;29.67;;;;;;;2.39;82.80;103333.72;5069598;28;20162;-72
2022/01/26 02:02:14;;;;;;;107.50;28.60;;;;;;;2.38;83.18;103338.00;5059794;28;20115;-72
2022/01/26 02:04:39;;;;;;;105.57;27.75;;;;;;;2.38;84.38;103332.00;5054578;28;20131;-72
2022/01/26 02:07:05;;;;;;;103.95;27.95;;;;;;;2.38;84.23;103322.63;5061593;28;20024;-72
2022/01/26 02:09:30;;;;;;;103.03;28.13;;;;;;;2.38;82.91;103326.88;5059095;28;20040;-71
2022/01/26 02:11:57;;;;;;;105.85;28.92;;;;;;;2.38;83.85;103314.97;5051639;28;20025;-71
2022/01/26 02:14:28;;;;;;;102.75;27.83;;;;;;;2.39;84.28;103303.88;5057534;28;20032;-71
2022/01/26 02:17:07;;;;;;;106.82;28.67;;;;;;;2.39;83.69;103306.44;5068125;28;20052;-71
2022/01/26 03:05:09;;;;;;;92.78;25.42;;;;;;;2.27;83.70;103276.81;5057936;28;20634;-72
2022/01/26 03:10:08;;;;;;;98.90;27.60;;;;;;;2.27;83.39;103271.69;5059556;28;20037;-72
2022/01/26 03:12:50;;;;;;;97.25;26.73;;;;;;;2.28;83.92;103251.31;5049592;28;20322;-72
2022/01/26 03:15:22;;;;;;;97.47;28.23;;;;;;;2.29;83.25;103259.88;5064489;28;20338;-72
2022/01/26 03:20:16;;;;;;;100.95;29.02;;;;;;;2.29;83.79;103253.06;5060377;28;20028;-72
2022/01/26 03:28:27;;;;;;;96.10;26.73;;;;;;;2.32;84.79;103270.28;5060632;28;20039;-72
2022/01/26 03:31:30;;;;;;;97.57;28.55;;;;;;;2.35;85.58;103273.84;5047104;28;20029;-72
2022/01/26 03:36:13;;;;;;;103.72;29.13;;;;;;;2.37;86.06;103254.34;5066089;28;20037;-72
2022/01/26 03:38:46;;;;;;;103.20;28.42;;;;;;;2.38;84.90;103261.22;5057961;28;20505;-72
2022/01/26 03:43:40;;;;;;;108.38;28.80;;;;;;;2.42;85.92;103276.69;5057909;28;20033;-73
2022/01/26 03:46:05;;;;;;;100.80;27.45;;;;;;;2.43;86.38;103274.22;5060788;28;20419;-72
2022/01/26 03:48:30;;;;;;;99.82;27.25;;;;;;;2.46;86.64;103268.38;5057282;28;20041;-72
2022/01/26 03:50:56;;;;;;;99.60;27.23;;;;;;;2.45;86.46;103251.28;5052401;28;20054;-72
2022/01/26 03:53:21;;;;;;;100.00;26.90;;;;;;;2.44;84.78;103249.50;5056634;28;20275;-72
2022/01/26 03:55:47;;;;;;;90.82;27.75;;;;;;;2.42;85.25;103244.31;5062115;28;20032;-72
2022/01/26 03:58:12;;;;;;;95.88;27.23;;;;;;;2.39;85.57;103249.25;5053319;28;20395;-72
2022/01/26 04:00:37;;;;;;;100.40;27.15;;;;;;;2.42;86.31;103261.34;5039682;28;20060;-72
2022/01/26 04:03:03;;;;;;;106.18;27.80;;;;;;;2.40;85.44;103253.59;5047363;28;20020;-72
2022/01/26 04:05:29;;;;;;;99.95;28.70;;;;;;;2.43;86.14;103256.31;5061592;28;20112;-72
2022/01/26 04:08:00;;;;;;;105.40;28.50;;;;;;;2.42;85.70;103251.09;5052096;28;20360;-72
2022/01/26 04:10:42;;;;;;;105.57;28.13;;;;;;;2.42;84.96;103251.09;5061793;28;20028;-78
2022/01/26 04:13:08;;;;;;;106.88;29.08;;;;;;;2.39;84.91;103249.25;5071881;28;20024;-78
2022/01/26 04:15:35;;;;;;;96.88;26.90;;;;;;;2.36;84.96;103232.09;5071005;28;20021;-78
2022/01/26 04:18:03;;;;;;;104.05;29.05;;;;;;;2.29;84.56;103229.16;5053752;28;20023;-78
2022/01/26 04:20:33;;;;;;;104.15;27.15;;;;;;;2.33;85.84;103223.38;5066225;28;20120;-78
2022/01/26 04:23:15;;;;;;;108.43;28.33;;;;;;;2.32;85.81;103239.56;5033831;28;20017;-78
2022/01/26 04:25:43;;;;;;;106.40;28.13;;;;;;;2.34;86.59;103238.81;5050911;28;20063;-78
2022/01/26 04:28:14;;;;;;;101.80;26.05;;;;;;;2.35;85.90;103245.69;5057439;28;20140;-78
2022/01/26 04:30:39;;;;;;;108.63;29.05;;;;;;;2.35;85.75;103248.25;5064808;28;20391;-77
2022/01/26 04:33:06;;;;;;;105.60;28.35;;;;;;;2.35;85.46;103260.16;5065900;28;20043;-78
2022/01/26 04:35:32;;;;;;;112.45;28.75;;;;;;;2.35;86.26;103268.72;5053837;28;20047;-78
2022/01/26 04:38:15;;;;;;;103.18;26.92;;;;;;;2.34;86.17;103263.53;5053115;28;20463;-78
2022/01/26 04:41:27;;;;;;;107.15;28.60;;;;;;;2.34;85.44;103278.88;5049147;28;20052;-72
2022/01/26 04:43:36;;;;;;;102.25;28.30;;;;;;;2.35;85.77;103284.09;5049468;28;20520;-72
2022/01/26 04:46:01;;;;;;;105.28;27.67;;;;;;;2.34;85.80;103287.44;5051525;28;20066;-71
2022/01/26 04:48:27;;;;;;;109.78;28.75;;;;;;;2.33;86.80;103288.25;5048891;28;20028;-72
2022/01/26 04:50:53;;;;;;;106.97;26.80;;;;;;;2.37;87.13;103295.28;5070252;28;20055;-72
2022/01/26 04:53:19;;;;;;;103.97;27.17;;;;;;;2.37;86.21;103285.03;5068681;28;20044;-72
2022/01/26 04:55:44;;;;;;;115.50;28.17;;;;;;;2.35;85.73;103272.97;5066808;28;20048;-72
2022/01/26 04:58:10;;;;;;;112.47;29.02;;;;;;;2.35;85.61;103284.09;5054709;28;20052;-72
2022/01/26 05:00:35;;;;;;;115.38;28.10;;;;;;;2.38;85.36;103294.47;5050839;28;20021;-72
2022/01/26 05:03:01;;;;;;;117.68;30.02;;;;;;;2.38;86.40;103281.69;5044298;28;20029;-72
2022/01/26 05:05:26;;;;;;;116.55;28.58;;;;;;;2.38;86.19;103266.34;5062875;28;20368;-72
2022/01/26 05:07:51;;;;;;;106.70;27.10;;;;;;;2.36;85.64;103257.69;5050385;28;20025;-72
2022/01/26 05:10:18;;;;;;;105.22;27.85;;;;;;;2.34;85.60;103269.53;5068202;28;20309;-73
2022/01/26 05:12:43;;;;;;;114.63;28.48;;;;;;;2.33;85.75;103275.44;5070776;28;20103;-72
2022/01/26 05:15:08;;;;;;;106.80;28.33;;;;;;;2.33;85.85;103272.00;5070180;28;20104;-72
2022/01/26 05:17:35;;;;;;;109.03;27.90;;;;;;;2.33;84.76;103262.66;5070513;28;20028;-72
2022/01/26 05:20:01;;;;;;;100.95;27.13;;;;;;;2.30;85.38;103248.84;5069615;28;20031;-72
2022/01/26 05:22:27;;;;;;;107.32;27.75;;;;;;;2.31;84.96;103233.56;5070499;28;20024;-72
2022/01/26 05:24:53;;;;;;;115.90;28.58;;;;;;;2.31;85.67;103242.91;5070877;28;20028;-72
2022/01/26 05:27:18;;;;;;;107.85;29.00;;;;;;;2.30;85.45;103234.38;5051283;28;20463;-72
2022/01/26 05:29:44;;;;;;;112.45;28.05;;;;;;;2.30;85.63;103233.50;5051772;28;20032;-72
2022/01/26 05:32:09;;;;;;;116.75;28.73;;;;;;;2.28;85.34;103235.09;5069446;28;20221;-72
2022/01/26 05:34:34;;;;;;;111.78;26.95;;;;;;;2.27;85.46;103223.09;5054632;28;20036;-72
2022/01/26 05:37:00;;;;;;;109.63;29.13;;;;;;;2.26;85.15;103246.91;5068300;28;20024;-73
2022/01/26 05:39:25;;;;;;;109.15;29.73;;;;;;;2.25;85.69;103243.47;5068837;28;20037;-72
2022/01/26 05:41:50;;;;;;;114.00;28.38;;;;;;;2.24;85.04;103238.31;5069875;28;20021;-72
2022/01/26 05:44:16;;;;;;;115.68;28.45;;;;;;;2.25;85.21;103240.06;5068167;28;20451;-73
2022/01/26 05:46:45;;;;;;;108.53;28.00;;;;;;;2.25;85.85;103237.50;5062285;28;20048;-72
2022/01/26 05:49:12;;;;;;;104.28;26.67;;;;;;;2.24;85.22;103238.31;5062763;28;20066;-72
2022/01/26 05:51:38;;;;;;;113.20;28.75;;;;;;;2.23;84.77;103239.09;5039466;28;20056;-72
2022/01/26 05:54:05;;;;;;;108.22;27.67;;;;;;;2.21;85.17;103241.59;5059900;28;20056;-72
2022/01/26 05:56:31;;;;;;;107.05;27.08;;;;;;;2.20;85.68;103232.16;5069326;28;20807;-72
2022/01/26 05:58:57;;;;;;;114.30;28.88;;;;;;;2.21;85.27;103220.25;5069468;28;20035;-72
2022/01/26 06:01:22;;;;;;;109.55;27.02;;;;;;;2.19;85.30;103226.94;5063929;28;20101;-72
2022/01/26 06:03:47;;;;;;;118.65;29.13;;;;;;;2.19;85.52;103219.28;5068963;28;20101;-72
2022/01/26 06:06:15;;;;;;;116.95;29.83;;;;;;;2.18;85.47;103215.88;5039944;28;20456;-72
2022/01/26 06:08:40;;;;;;;114.22;28.38;;;;;;;2.17;85.62;103223.47;5065001;28;20111;-73
2022/01/26 06:11:05;;;;;;;114.30;29.25;;;;;;;2.17;85.33;103232.03;5066015;28;20096;-72
2022/01/26 06:13:31;;;;;;;112.28;29.63;;;;;;;2.16;85.34;103237.94;5069080;28;20034;-72
2022/01/26 06:15:56;;;;;;;112.60;27.98;;;;;;;2.17;85.53;103242.25;5060029;28;20020;-72
2022/01/26 06:18:21;;;;;;;110.45;28.20;;;;;;;2.15;85.21;103253.19;5065033;28;20024;-72
2022/01/26 06:20:48;;;;;;;109.68;28.77;;;;;;;2.16;85.36;103258.41;5062774;28;20028;-72
2022/01/26 06:23:13;;;;;;;100.53;26.85;;;;;;;2.14;86.31;103236.97;5060974;28;20074;-73
2022/01/26 06:25:39;;;;;;;115.00;27.90;;;;;;;2.16;85.78;103222.59;5060993;28;20028;-72
2022/01/26 06:28:12;;;;;;;108.95;27.45;;;;;;;2.16;85.70;103221.69;5049628;28;20119;-72
2022/01/26 06:30:38;;;;;;;114.65;29.00;;;;;;;2.17;85.80;103244.81;5063063;28;20031;-72
2022/01/26 06:33:05;;;;;;;109.72;26.75;;;;;;;2.19;86.19;103224.38;5055122;28;20412;-72
2022/01/26 06:35:30;;;;;;;115.68;29.65;;;;;;;2.17;85.65;103219.22;5057013;28;20032;-72
2022/01/26 06:37:56;;;;;;;103.57;28.27;;;;;;;2.18;85.74;103231.22;5055959;28;20058;-72
2022/01/26 06:40:23;;;;;;;109.03;27.35;;;;;;;2.17;86.01;103229.47;5055298;28;20027;-72
2022/01/26 06:42:55;;;;;;;112.32;28.38;;;;;;;2.18;86.15;103222.66;5068447;28;20431;-72
2022/01/26 06:45:24;;;;;;;113.38;29.70;;;;;;;2.19;86.34;103229.50;5053719;28;20053;-72
2022/01/26 06:50:35;;;;;;;114.63;28.98;;;;;;;2.17;85.85;103244.81;5056313;28;20039;-72
2022/01/26 06:53:00;;;;;;;117.18;28.40;;;;;;;2.13;86.26;103224.97;5066390;28;20028;-72
2022/01/26 06:55:26;;;;;;;114.70;29.80;;;;;;;2.19;85.66;103238.06;5055215;28;20051;-72
2022/01/26 06:57:51;;;;;;;110.45;30.10;;;;;;;2.19;86.15;103234.63;5063879;28;20016;-72
2022/01/26 07:00:17;;;;;;;109.07;28.15;;;;;;;2.18;85.99;103230.34;5059540;28;20432;-72
2022/01/26 07:02:42;;;;;;;108.40;28.35;;;;;;;2.18;86.02;103236.34;5053354;28;20056;-72
2022/01/26 07:05:12;;;;;;;115.75;29.83;;;;;;;2.17;85.93;103231.13;5064496;28;20033;-72
2022/01/26 07:07:38;;;;;;;113.50;29.60;;;;;;;2.18;86.50;103230.34;5064770;28;20032;-72
2022/01/26 07:10:05;;;;;;;114.80;29.10;;;;;;;2.17;86.79;103226.91;5062690;28;20055;-72
2022/01/26 07:12:31;;;;;;;109.50;29.63;;;;;;;2.18;86.57;103223.53;5052523;28;20178;-72
2022/01/26 07:23:05;;;;;;;113.80;29.38;;;;;;;2.19;86.49;103253.41;5052114;28;20040;-73
2022/01/26 07:25:30;;;;;;;112.80;30.80;;;;;;;2.17;86.22;103262.72;5064360;28;20083;-73
2022/01/26 07:27:57;;;;;;;110.38;29.40;;;;;;;2.19;86.70;103248.28;5047587;28;20037;-73
2022/01/26 07:30:23;;;;;;;109.72;29.30;;;;;;;2.18;86.63;103236.34;5062500;28;20025;-73
2022/01/26 07:32:48;;;;;;;118.88;31.35;;;;;;;2.18;87.22;103258.47;5068696;28;20032;-72
2022/01/26 07:35:14;;;;;;;120.00;29.38;;;;;;;2.16;87.02;103258.41;5066049;28;20056;-72
2022/01/26 07:37:39;;;;;;;118.85;29.33;;;;;;;2.17;86.98;103249.03;5057324;28;20399;-72
2022/01/26 07:40:06;;;;;;;112.07;30.25;;;;;;;2.17;87.44;103255.03;5060519;28;20398;-73
2022/01/26 07:42:33;;;;;;;108.10;29.95;;;;;;;2.13;87.55;103248.00;5050419;28;20032;-73
2022/01/26 07:44:58;;;;;;;125.53;31.38;;;;;;;2.14;88.09;103247.19;5063180;28;20045;-72
2022/01/26 07:47:24;;;;;;;120.40;31.73;;;;;;;2.14;87.92;103246.31;5060739;28;20031;-73
2022/01/26 07:49:53;;;;;;;116.88;30.15;;;;;;;2.11;88.20;103247.06;5060500;28;20118;-73
2022/01/26 07:52:19;;;;;;;129.15;30.80;;;;;;;2.13;88.52;103242.00;5056985;28;20025;-72
2022/01/26 07:54:45;;;;;;;121.13;32.85;;;;;;;2.11;88.18;103252.19;5050587;28;20035;-73
2022/01/26 07:57:11;;;;;;;120.40;31.83;;;;;;;2.10;88.88;103255.53;5057380;28;20028;-72
2022/01/26 07:59:36;;;;;;;123.50;32.03;;;;;;;2.10;89.13;103272.56;5067603;28;20151;-72
2022/01/26 08:02:02;;;;;;;116.22;32.45;;;;;;;2.06;89.08;103260.41;5066503;28;20036;-73
2022/01/26 08:04:27;;;;;;;116.95;29.95;;;;;;;2.10;89.20;103277.69;5037213;28;20036;-73
2022/01/26 08:06:53;;;;;;;122.03;32.00;;;;;;;2.12;89.57;103276.94;5055280;28;20032;-73
2022/01/26 08:09:18;;;;;;;124.90;30.80;;;;;;;2.13;89.49;103271.03;5069279;28;20028;-73
2022/01/26 08:11:43;;;;;;;120.05;31.48;;;;;;;2.17;89.31;103264.41;5068587;28;20040;-73
2022/01/26 08:14:09;;;;;;;123.80;31.35;;;;;;;2.16;89.55;103273.75;5056731;28;20355;-73
2022/01/26 08:16:35;;;;;;;121.15;30.10;;;;;;;2.16;89.79;103281.41;5051593;28;20467;-73
2022/01/26 08:19:00;;;;;;;125.88;31.77;;;;;;;2.16;90.57;103291.66;5068911;28;20044;-73
2022/01/26 08:21:25;;;;;;;123.43;30.70;;;;;;;2.19;90.71;103285.78;5068722;28;20028;-73
2022/01/26 08:23:51;;;;;;;121.43;29.70;;;;;;;2.20;90.40;103274.75;5068615;28;20398;-73
2022/01/26 08:26:22;;;;;;;125.80;31.52;;;;;;;2.22;90.36;103271.50;5067181;28;20021;-73
2022/01/26 08:28:53;;;;;;;128.77;32.50;;;;;;;2.20;90.42;103273.09;5068554;28;20036;-73
2022/01/26 08:31:19;;;;;;;122.50;31.77;;;;;;;2.23;90.55;103275.81;5054973;28;20095;-72
2022/01/26 08:33:44;;;;;;;124.78;31.65;;;;;;;2.24;90.31;103279.25;5066170;28;20021;-73
2022/01/26 08:36:09;;;;;;;121.38;29.70;;;;;;;2.25;90.38;103274.19;5051294;28;20037;-73
2022/01/26 08:38:35;;;;;;;128.20;32.28;;;;;;;2.26;91.00;103275.94;5063248;28;20058;-73
2022/01/26 08:41:01;;;;;;;123.03;30.45;;;;;;;2.27;90.59;103279.38;5062101;28;20025;-75
2022/01/26 08:43:26;;;;;;;118.30;30.95;;;;;;;2.30;90.88;103271.88;5065408;28;20025;-73
2022/01/26 08:45:51;;;;;;;130.50;31.65;;;;;;;2.34;90.68;103274.63;5062834;28;20056;-72
2022/01/26 08:48:17;;;;;;;125.72;31.45;;;;;;;2.36;90.51;103285.84;5071083;28;20036;-73
2022/01/26 08:50:42;;;;;;;120.15;29.67;;;;;;;2.40;90.39;103289.41;5059489;28;20017;-73
2022/01/26 08:53:08;;;;;;;120.90;30.58;;;;;;;2.40;90.62;103291.97;5063804;28;20401;-73
2022/01/26 08:55:35;;;;;;;117.93;29.40;;;;;;;2.45;90.43;103298.22;5062198;28;20426;-73
2022/01/26 08:58:00;;;;;;;120.82;30.20;;;;;;;2.45;90.34;103287.97;5049589;28;20127;-73
2022/01/26 09:00:25;;;;;;;114.03;30.50;;;;;;;2.48;90.20;103284.66;5071105;28;20118;-72
2022/01/26 09:02:51;;;;;;;116.90;29.30;;;;;;;2.50;90.20;103266.03;5070980;28;20419;-72
2022/01/26 09:05:17;;;;;;;116.20;29.88;;;;;;;2.53;90.03;103270.41;5070391;28;20052;-73
2022/01/26 09:07:44;;;;;;;111.18;28.52;;;;;;;2.58;90.53;103279.22;5065837;28;20047;-72
2022/01/26 09:10:10;;;;;;;114.82;30.58;;;;;;;2.60;89.78;103272.44;5050260;28;20021;-72
2022/01/26 09:12:40;;;;;;;109.00;29.05;;;;;;;2.63;89.79;103281.19;5050465;28;20116;-72
2022/01/26 09:15:06;;;;;;;108.00;28.95;;;;;;;2.65;89.91;103282.13;5070255;28;20406;-73
2022/01/26 09:17:34;;;;;;;111.35;29.65;;;;;;;2.67;89.73;103285.63;5070803;28;20115;-73
2022/01/26 09:20:01;;;;;;;103.85;27.13;;;;;;;2.67;89.45;103279.63;5070888;28;20402;-73
2022/01/26 09:22:26;;;;;;;110.57;28.08;;;;;;;2.68;89.86;103278.81;5068264;28;20028;-73
2022/01/26 09:24:52;;;;;;;109.32;29.90;;;;;;;2.71;90.01;103294.34;5070429;28;20029;-73
2022/01/26 09:27:17;;;;;;;109.32;29.20;;;;;;;2.72;89.76;103289.31;5069843;28;20120;-73
2022/01/26 09:29:44;;;;;;;105.30;29.30;;;;;;;2.76;89.86;103298.00;5052263;28;20086;-73
2022/01/26 09:32:11;;;;;;;108.25;28.30;;;;;;;2.77;89.36;103289.50;5059150;28;20016;-73
2022/01/26 09:34:37;;;;;;;106.80;29.50;;;;;;;2.79;89.60;103285.34;5052271;28;20122;-73
2022/01/26 09:37:04;;;;;;;109.15;28.75;;;;;;;2.82;89.45;103282.91;5070166;28;20021;-73
2022/01/26 09:39:29;;;;;;;110.35;29.65;;;;;;;2.85;89.28;103277.97;5070454;28;20115;-74
2022/01/26 09:41:55;;;;;;;107.95;27.27;;;;;;;2.87;89.44;103270.31;5039738;28;20116;-73
2022/01/26 09:44:21;;;;;;;112.85;28.35;;;;;;;2.91;89.79;103267.13;5050903;28;20431;-73
2022/01/26 09:46:47;;;;;;;99.45;27.23;;;;;;;2.92;89.11;103267.19;5032158;28;20076;-73
2022/01/26 09:49:17;;;;;;;104.90;28.25;;;;;;;2.97;89.26;103259.72;5032242;28;20141;-72
2022/01/26 09:51:44;;;;;;;103.65;27.20;;;;;;;2.99;89.50;103264.09;5050396;28;20074;-73
2022/01/26 09:54:15;;;;;;;102.50;28.17;;;;;;;3.00;89.49;103257.31;5049790;28;20033;-73
2022/01/26 09:56:43;;;;;;;107.00;30.05;;;;;;;3.03;89.09;103257.44;5064574;28;20037;-73
2022/01/26 09:59:08;;;;;;;101.93;27.90;;;;;;;3.02;88.76;103256.53;5049666;28;20028;-73
2022/01/26 10:01:48;;;;;;;104.38;28.45;;;;;;;3.07;88.76;103254.22;5062032;28;20031;-73
2022/01/26 10:04:24;;;;;;;96.95;26.70;;;;;;;3.10;88.54;103256.91;5062384;28;20059;-73
2022/01/26 10:07:28;;;;;;;109.57;33.88;;;;;;;3.15;88.71;103251.16;5060122;28;20043;-81
2022/01/26 10:10:32;;;;;;;102.38;30.13;;;;;;;3.18;88.67;103258.13;5046147;28;20527;-81
2022/01/26 10:15:52;;;;;;;91.63;27.00;;;;;;;3.26;88.11;103253.34;5062134;28;20044;-80
2022/01/26 10:18:20;;;;;;;89.40;25.88;;;;;;;3.26;88.32;103258.47;5048717;28;20039;-81
2022/01/26 10:20:51;;;;;;;87.15;26.40;;;;;;;3.27;88.28;103249.97;5049516;28;20100;-81
2022/01/26 10:23:22;;;;;;;85.70;25.73;;;;;;;3.30;87.96;103245.84;5055884;28;20048;-81
2022/01/26 10:26:14;;;;;;;93.88;25.98;;;;;;;3.32;88.04;103243.38;5068753;28;20033;-81
2022/01/26 10:29:00;;;;;;;97.25;27.83;;;;;;;3.34;88.34;103240.06;5065765;28;20505;-80
2022/01/26 10:31:34;;;;;;;98.25;26.90;;;;;;;3.36;88.02;103255.50;5050872;28;20025;-80
2022/01/26 10:34:14;;;;;;;92.82;25.73;;;;;;;3.37;87.87;103268.41;5060817;28;21620;-80
2022/01/26 10:36:41;;;;;;;92.68;25.15;;;;;;;3.35;87.51;103282.81;5066824;28;20028;-81
2022/01/26 10:39:25;;;;;;;95.30;27.33;;;;;;;3.35;87.38;103292.19;5062083;28;20549;-81
2022/01/26 10:41:54;;;;;;;87.63;25.00;;;;;;;3.33;87.35;103302.41;5068339;28;20109;-80
2022/01/26 10:45:09;;;;;;;86.60;25.45;;;;;;;3.36;87.46;103299.97;5050768;28;20029;-80
2022/01/26 10:47:38;;;;;;;78.57;24.80;;;;;;;3.33;87.31;103302.41;5067780;28;20040;-80
2022/01/26 10:50:44;;;;;;;66.28;21.20;;;;;;;3.33;87.27;103306.66;5057222;28;20430;-80
2022/01/26 10:53:12;;;;;;;83.38;24.23;;;;;;;3.28;87.38;103298.72;5040984;28;20071;-80
2022/01/26 10:55:39;;;;;;;80.45;25.40;;;;;;;3.29;87.76;103285.09;5049460;28;20453;-80
2022/01/26 10:58:06;;;;;;;76.70;24.10;;;;;;;3.30;87.33;103284.31;5062000;28;20021;-82
2022/01/26 11:00:35;;;;;;;75.38;23.33;;;;;;;3.29;87.79;103273.97;5047733;28;20028;-81
2022/01/26 11:03:01;;;;;;;78.95;24.02;;;;;;;3.30;87.60;103280.84;5042781;28;20116;-81
2022/01/26 11:05:26;;;;;;;79.22;23.95;;;;;;;3.33;88.01;103291.25;5067491;28;20105;-81
2022/01/26 11:07:52;;;;;;;72.63;24.23;;;;;;;3.33;88.02;103279.34;5062228;28;20368;-81
2022/01/26 11:10:18;;;;;;;73.50;23.35;;;;;;;3.31;88.60;103269.81;5060266;28;20144;-81
2022/01/26 11:12:44;;;;;;;75.25;24.45;;;;;;;3.33;88.53;103289.59;5066688;28;20101;-81
2022/01/26 11:15:12;;;;;;;75.50;24.10;;;;;;;3.36;88.99;103288.81;5062286;28;20079;-81
2022/01/26 11:17:44;;;;;;;71.57;23.40;;;;;;;3.35;88.13;103277.69;5033226;28;20151;-81
2022/01/26 11:20:17;;;;;;;74.43;23.35;;;;;;;3.37;88.07;103270.94;5056439;28;20052;-81
2022/01/26 11:22:56;;;;;;;71.82;24.55;;;;;;;3.38;87.74;103274.41;5037611;28;20021;-81
2022/01/26 11:25:24;;;;;;;70.75;22.60;;;;;;;3.38;87.98;103274.41;5058298;28;20135;-81
2022/01/26 11:27:51;;;;;;;69.28;23.45;;;;;;;3.41;88.28;103269.41;5068842;28;20028;-81
2022/01/26 11:30:36;;;;;;;74.63;24.35;;;;;;;3.47;87.87;103273.13;5066609;28;20025;-81
2022/01/26 11:33:11;;;;;;;71.18;22.73;;;;;;;3.46;87.99;103266.25;5053578;28;20032;-81
2022/01/26 11:35:38;;;;;;;68.80;23.10;;;;;;;3.50;88.07;103260.44;5073370;28;20032;-81
2022/01/26 11:38:29;;;;;;;66.45;23.25;;;;;;;3.51;87.75;103253.63;5071972;28;20506;-81
2022/01/26 11:46:53;;;;;;;62.05;21.15;;;;;;;3.65;87.79;103247.41;5036614;28;20082;-81
2022/01/26 11:49:32;;;;;;;67.13;21.98;;;;;;;3.69;87.38;103241.59;5071831;28;20506;-81
2022/01/26 11:51:59;;;;;;;63.05;22.92;;;;;;;3.75;88.03;103241.00;5052840;28;20368;-81
2022/01/26 11:54:28;;;;;;;68.13;22.80;;;;;;;3.80;87.27;103232.69;5060087;28;20024;-81
2022/01/26 11:57:03;;;;;;;73.32;24.13;;;;;;;3.86;87.09;103225.25;5063459;28;20039;-81
2022/01/26 11:59:31;;;;;;;64.45;23.05;;;;;;;3.92;86.72;103228.06;5057882;28;20032;-81
2022/01/26 12:02:01;;;;;;;69.18;23.45;;;;;;;3.96;87.05;103229.94;5062215;28;20020;-82
2022/01/26 12:04:31;;;;;;;71.13;23.40;;;;;;;4.01;86.59;103217.31;5067258;28;20020;-82
2022/01/26 12:07:09;;;;;;;69.68;23.35;;;;;;;4.07;86.96;103215.00;5064703;28;20118;-81
2022/01/26 12:09:34;;;;;;;69.18;23.75;;;;;;;4.10;86.53;103212.53;5050892;28;20144;-81
2022/01/26 12:12:00;;;;;;;72.30;24.20;;;;;;;4.16;86.59;103220.47;5067824;28;20469;-82
2022/01/26 12:14:25;;;;;;;66.97;23.00;;;;;;;4.17;86.52;103205.94;5068165;28;20031;-81
2022/01/26 12:16:54;;;;;;;75.50;24.85;;;;;;;4.24;86.58;103219.09;5051184;28;20522;-81
2022/01/26 12:19:27;;;;;;;77.82;25.67;;;;;;;4.28;86.08;103226.13;5064196;28;20025;-81
2022/01/26 12:36:25;;;;;;;74.03;23.38;;;;;;;4.31;85.29;103222.78;5067494;28;20173;-80
2022/01/26 12:38:59;;;;;;;66.70;23.17;;;;;;;4.26;86.20;103230.31;5067508;28;21569;-80
2022/01/26 12:41:37;;;;;;;70.93;23.30;;;;;;;4.21;85.74;103231.81;5067219;28;20333;-80
2022/01/26 12:44:11;;;;;;;71.03;23.05;;;;;;;4.19;85.65;103232.56;5063450;28;20028;-81
2022/01/26 12:46:38;;;;;;;74.80;23.48;;;;;;;4.20;85.69;103234.31;5064368;28;20417;-81
2022/01/26 12:49:03;;;;;;;73.47;23.90;;;;;;;4.22;86.14;103222.44;5060958;28;20447;-81
2022/01/26 12:51:29;;;;;;;74.30;23.80;;;;;;;4.27;85.77;103223.50;5067381;28;20609;-81
2022/01/26 12:54:01;;;;;;;73.97;24.00;;;;;;;4.31;85.76;103217.66;5051690;28;20028;-81
2022/01/26 12:56:32;;;;;;;75.40;23.52;;;;;;;4.31;85.93;103218.53;5063952;28;20056;-81
2022/01/26 12:59:03;;;;;;;68.65;22.15;;;;;;;4.37;85.41;103218.78;5064279;28;20077;-81
2022/01/26 13:01:28;;;;;;;73.75;23.27;;;;;;;4.40;85.18;103210.31;5057946;28;20040;-81
2022/01/26 13:04:03;;;;;;;70.43;23.35;;;;;;;4.43;84.73;103202.75;5060253;28;20025;-81
2022/01/26 13:06:31;;;;;;;68.72;21.88;;;;;;;4.51;85.26;103200.47;5053423;28;20068;-81
2022/01/26 13:08:58;;;;;;;67.85;23.15;;;;;;;4.56;84.50;103194.72;5047561;28;20024;-81
2022/01/26 13:11:28;;;;;;;77.03;23.98;;;;;;;4.57;83.97;103196.44;5063924;28;20024;-81
2022/01/26 13:16:45;;;;;;;72.90;22.58;;;;;;;4.59;84.87;103192.25;5067231;28;20533;-81
2022/01/26 13:19:31;;;;;;;70.45;23.35;;;;;;;4.56;84.20;103184.44;5058134;28;20046;-81
2022/01/26 13:22:14;;;;;;;72.22;24.27;;;;;;;4.55;84.10;103194.66;5067878;28;20136;-81